createdAt,value
2024-02-19T00:00:33.313Z,9.33
2024-02-19T00:01:33.401Z,9.32
2024-02-19T00:02:33.188Z,9.30
2024-02-19T00:03:33.249Z,9.30
2024-02-19T00:04:33.193Z,9.30
2024-02-19T00:05:33.141Z,9.30
2024-02-19T00:06:33.234Z,9.30
2024-02-19T00:07:33.382Z,9.32
2024-02-19T00:08:33.099Z,9.32
2024-02-19T00:09:33.137Z,9.32
2024-02-19T00:10:33.184Z,9.30
2024-02-19T00:11:33.135Z,9.29
2024-02-19T00:12:33.107Z,9.29
2024-02-19T00:13:33.057Z,9.27
2024-02-19T00:14:33.037Z,9.26
2024-02-19T00:15:33.112Z,9.27
2024-02-19T00:16:33.036Z,9.26
2024-02-19T00:17:33.077Z,9.26
2024-02-19T00:18:33.092Z,9.26
2024-02-19T00:19:33.155Z,9.26
2024-02-19T00:20:32.983Z,9.26
2024-02-19T00:21:33.094Z,9.27
2024-02-19T00:22:32.959Z,9.26
2024-02-19T00:23:32.950Z,9.24
2024-02-19T00:24:32.933Z,9.24
2024-02-19T00:25:32.920Z,9.22
2024-02-19T00:26:32.908Z,9.22
2024-02-19T00:27:32.924Z,9.22
2024-02-19T00:28:32.898Z,9.19
2024-02-19T00:29:32.893Z,9.18
2024-02-19T00:30:32.874Z,9.18
2024-02-19T00:31:32.868Z,9.15
2024-02-19T00:32:32.917Z,9.16
2024-02-19T00:33:33.075Z,9.14
2024-02-19T00:34:32.868Z,9.14
2024-02-19T00:35:32.821Z,9.11
2024-02-19T00:36:32.802Z,9.08
2024-02-19T00:37:32.799Z,9.08
2024-02-19T00:38:32.873Z,9.09
2024-02-19T00:39:32.772Z,9.08
2024-02-19T00:40:32.841Z,9.06
2024-02-19T00:41:32.765Z,9.06
2024-02-19T00:42:32.744Z,9.04
2024-02-19T00:43:32.801Z,9.03
2024-02-19T00:44:32.737Z,9.04
2024-02-19T00:45:32.709Z,9.06
2024-02-19T00:46:32.715Z,9.03
2024-02-19T00:47:32.719Z,8.98
2024-02-19T00:48:32.796Z,8.98
2024-02-19T00:49:32.801Z,8.99
2024-02-19T00:50:32.693Z,8.96
2024-02-19T00:51:32.648Z,8.98
2024-02-19T00:52:32.628Z,8.96
2024-02-19T00:53:32.699Z,8.96
2024-02-19T00:54:32.612Z,8.98
2024-02-19T00:55:32.684Z,8.95
2024-02-19T00:56:32.618Z,8.92
2024-02-19T00:57:32.586Z,8.88
2024-02-19T00:58:32.566Z,8.85
2024-02-19T00:59:32.651Z,8.83
2024-02-19T01:00:32.552Z,8.81
2024-02-19T01:01:32.667Z,8.81
2024-02-19T01:02:32.530Z,8.81
2024-02-19T01:03:32.586Z,8.80
2024-02-19T01:04:32.673Z,8.80
2024-02-19T01:05:32.507Z,8.80
2024-02-19T01:06:32.556Z,8.77
2024-02-19T01:07:32.483Z,8.74
2024-02-19T01:08:32.465Z,8.72
2024-02-19T01:09:32.527Z,8.71
2024-02-19T01:10:32.510Z,8.70
2024-02-19T01:11:32.604Z,8.68
2024-02-19T01:12:32.415Z,8.67
2024-02-19T01:13:32.410Z,8.67
2024-02-19T01:14:32.395Z,8.63
2024-02-19T01:15:32.510Z,8.63
2024-02-19T01:16:32.389Z,8.62
2024-02-19T01:17:32.388Z,8.62
2024-02-19T01:18:32.399Z,8.57
2024-02-19T01:19:32.478Z,8.60
2024-02-19T01:20:32.324Z,8.60
2024-02-19T01:21:32.434Z,8.59
2024-02-19T01:22:32.312Z,8.59
2024-02-19T01:23:32.306Z,8.59
2024-02-19T01:24:32.290Z,8.56
2024-02-19T01:25:32.380Z,8.57
2024-02-19T01:26:32.275Z,8.59
2024-02-19T01:27:32.310Z,8.60
2024-02-19T01:28:32.249Z,8.60
2024-02-19T01:29:32.233Z,8.60
2024-02-19T01:30:32.339Z,8.62
2024-02-19T01:31:32.282Z,8.59
2024-02-19T01:32:32.321Z,8.59
2024-02-19T01:33:32.224Z,8.59
2024-02-19T01:34:32.399Z,8.60
2024-02-19T01:35:32.171Z,8.59
2024-02-19T01:36:32.161Z,8.60
2024-02-19T01:37:32.151Z,8.60
2024-02-19T01:38:32.253Z,8.60
2024-02-19T01:39:32.135Z,8.62
2024-02-19T01:40:32.126Z,8.60
2024-02-19T01:41:32.181Z,8.62
2024-02-19T01:42:32.108Z,8.62
2024-02-19T01:43:32.091Z,8.60
2024-02-19T01:44:32.083Z,8.60
2024-02-19T01:45:32.208Z,8.62
2024-02-19T01:46:32.121Z,8.62
2024-02-19T01:47:32.105Z,8.60
2024-02-19T01:48:32.114Z,8.60
2024-02-19T01:49:32.111Z,8.60
2024-02-19T01:50:32.016Z,8.60
2024-02-19T01:51:32.001Z,8.60
2024-02-19T01:52:31.992Z,8.60
2024-02-19T01:53:32.062Z,8.60
2024-02-19T01:54:31.977Z,8.60
2024-02-19T01:55:31.963Z,8.60
2024-02-19T01:56:31.967Z,8.60
2024-02-19T01:57:31.940Z,8.57
2024-02-19T01:58:32.035Z,8.56
2024-02-19T01:59:31.983Z,8.59
2024-02-19T02:00:31.945Z,8.57
2024-02-19T02:01:31.957Z,8.59
2024-02-19T02:02:31.914Z,8.59
2024-02-19T02:03:31.965Z,8.59
2024-02-19T02:04:31.864Z,8.57
2024-02-19T02:05:31.863Z,8.56
2024-02-19T02:06:31.872Z,8.56
2024-02-19T02:07:31.829Z,8.56
2024-02-19T02:08:31.847Z,8.57
2024-02-19T02:09:31.870Z,8.57
2024-02-19T02:10:31.819Z,8.55
2024-02-19T02:11:31.826Z,8.56
2024-02-19T02:12:31.777Z,8.55
2024-02-19T02:13:31.817Z,8.56
2024-02-19T02:14:31.798Z,8.53
2024-02-19T02:15:31.749Z,8.55
2024-02-19T02:16:31.754Z,8.56
2024-02-19T02:17:31.787Z,8.53
2024-02-19T02:18:31.860Z,8.56
2024-02-19T02:19:31.779Z,8.56
2024-02-19T02:20:31.935Z,8.59
2024-02-19T02:21:31.690Z,8.59
2024-02-19T02:22:31.664Z,8.57
2024-02-19T02:23:31.665Z,8.59
2024-02-19T02:24:31.710Z,8.56
2024-02-19T02:25:31.646Z,8.56
2024-02-19T02:26:31.647Z,8.57
2024-02-19T02:27:31.630Z,8.57
2024-02-19T02:28:31.598Z,8.56
2024-02-19T02:29:31.665Z,8.56
2024-02-19T02:30:31.648Z,8.56
2024-02-19T02:31:31.577Z,8.55
2024-02-19T02:32:31.592Z,8.55
2024-02-19T02:33:31.606Z,8.56
2024-02-19T02:34:31.622Z,8.55
2024-02-19T02:35:31.608Z,8.56
2024-02-19T02:36:31.509Z,8.57
2024-02-19T02:37:31.519Z,8.55
2024-02-19T02:38:31.514Z,8.55
2024-02-19T02:39:31.483Z,8.55
2024-02-19T02:40:31.556Z,8.56
2024-02-19T02:41:31.469Z,8.55
2024-02-19T02:42:31.458Z,8.53
2024-02-19T02:43:31.574Z,8.52
2024-02-19T02:44:31.534Z,8.52
2024-02-19T02:45:32.207Z,8.52
2024-02-19T02:46:31.597Z,8.50
2024-02-19T02:47:31.407Z,8.49
2024-02-19T02:48:31.465Z,8.49
2024-02-19T02:49:31.524Z,8.46
2024-02-19T02:50:31.402Z,8.46
2024-02-19T02:51:31.500Z,8.46
2024-02-19T02:52:31.347Z,8.46
2024-02-19T02:53:31.348Z,8.44
2024-02-19T02:54:31.358Z,8.42
2024-02-19T02:55:31.368Z,8.44
2024-02-19T02:56:31.303Z,8.44
2024-02-19T02:57:31.354Z,8.42
2024-02-19T02:58:31.288Z,8.42
2024-02-19T02:59:31.282Z,8.44
2024-02-19T03:00:31.273Z,8.44
2024-02-19T03:01:31.638Z,8.42
2024-02-19T03:02:31.319Z,8.41
2024-02-19T03:03:31.369Z,8.41
2024-02-19T03:04:31.309Z,8.41
2024-02-19T03:05:31.217Z,8.42
2024-02-19T03:06:31.250Z,8.42
2024-02-19T03:07:31.304Z,8.44
2024-02-19T03:08:31.271Z,8.46
2024-02-19T03:09:31.204Z,8.46
2024-02-19T03:10:31.212Z,8.46
2024-02-19T03:11:31.177Z,8.44
2024-02-19T03:12:31.135Z,8.46
2024-02-19T03:13:31.189Z,8.46
2024-02-19T03:14:31.115Z,8.46
2024-02-19T03:15:31.166Z,8.46
2024-02-19T03:16:31.114Z,8.46
2024-02-19T03:17:31.111Z,8.46
2024-02-19T03:18:31.106Z,8.44
2024-02-19T03:19:31.214Z,8.46
2024-02-19T03:20:31.048Z,8.46
2024-02-19T03:21:31.045Z,8.46
2024-02-19T03:22:31.031Z,8.44
2024-02-19T03:23:31.026Z,8.44
2024-02-19T03:24:31.062Z,8.44
2024-02-19T03:25:31.057Z,8.44
2024-02-19T03:26:37.811Z,8.44
2024-02-19T03:27:31.986Z,8.44
2024-02-19T03:28:30.957Z,8.44
2024-02-19T03:29:30.967Z,8.44
2024-02-19T03:30:31.268Z,8.44
2024-02-19T03:31:30.935Z,8.44
2024-02-19T03:32:30.949Z,8.44
2024-02-19T03:33:31.011Z,8.44
2024-02-19T03:34:31.029Z,8.42
2024-02-19T03:35:30.892Z,8.39
2024-02-19T03:36:30.900Z,8.39
2024-02-19T03:37:30.872Z,8.39
2024-02-19T03:38:30.888Z,8.38
2024-02-19T03:39:30.880Z,8.37
2024-02-19T03:40:30.835Z,8.37
2024-02-19T03:41:30.828Z,8.37
2024-02-19T03:42:30.812Z,8.37
2024-02-19T03:43:30.837Z,8.37
2024-02-19T03:44:30.819Z,8.37
2024-02-19T03:45:30.843Z,8.37
2024-02-19T03:46:30.772Z,8.37
2024-02-19T03:47:30.837Z,8.38
2024-02-19T03:48:30.802Z,8.37
2024-02-19T03:49:30.867Z,8.37
2024-02-19T03:50:30.764Z,8.35
2024-02-19T03:51:30.841Z,8.35
2024-02-19T03:52:30.714Z,8.35
2024-02-19T03:53:30.728Z,8.35
2024-02-19T03:54:30.710Z,8.35
2024-02-19T03:55:30.778Z,8.32
2024-02-19T03:56:30.681Z,8.34
2024-02-19T03:57:30.688Z,8.32
2024-02-19T03:58:30.711Z,8.31
2024-02-19T03:59:30.634Z,8.32
2024-02-19T04:00:30.628Z,8.31
2024-02-19T04:01:30.776Z,8.32
2024-02-19T04:02:30.631Z,8.29
2024-02-19T04:03:30.633Z,8.29
2024-02-19T04:04:30.771Z,8.29
2024-02-19T04:05:30.691Z,8.29
2024-02-19T04:06:30.747Z,8.29
2024-02-19T04:07:30.846Z,8.28
2024-02-19T04:08:30.541Z,8.28
2024-02-19T04:09:30.560Z,8.26
2024-02-19T04:10:30.620Z,8.26
2024-02-19T04:11:30.645Z,8.28
2024-02-19T04:12:30.519Z,8.26
2024-02-19T04:13:30.704Z,8.26
2024-02-19T04:14:30.508Z,8.24
2024-02-19T04:15:30.474Z,8.24
2024-02-19T04:16:30.479Z,8.24
2024-02-19T04:17:30.490Z,8.26
2024-02-19T04:18:30.513Z,8.24
2024-02-19T04:19:30.460Z,8.23
2024-02-19T04:20:30.468Z,8.23
2024-02-19T04:21:30.399Z,8.24
2024-02-19T04:22:30.389Z,8.23
2024-02-19T04:23:30.377Z,8.24
2024-02-19T04:24:30.570Z,8.23
2024-02-19T04:25:30.409Z,8.24
2024-02-19T04:26:30.347Z,8.24
2024-02-19T04:27:30.342Z,8.24
2024-02-19T04:28:30.406Z,8.23
2024-02-19T04:29:30.320Z,8.23
2024-02-19T04:30:30.308Z,8.23
2024-02-19T04:31:30.349Z,8.21
2024-02-19T04:32:30.353Z,8.23
2024-02-19T04:33:30.343Z,8.24
2024-02-19T04:34:30.319Z,8.24
2024-02-19T04:35:30.310Z,8.24
2024-02-19T04:36:30.244Z,8.26
2024-02-19T04:37:30.273Z,8.26
2024-02-19T04:38:30.224Z,8.28
2024-02-19T04:39:30.217Z,8.29
2024-02-19T04:40:30.218Z,8.29
2024-02-19T04:41:30.239Z,8.29
2024-02-19T04:42:30.179Z,8.31
2024-02-19T04:43:30.203Z,8.32
2024-02-19T04:44:30.297Z,8.32
2024-02-19T04:45:30.149Z,8.34
2024-02-19T04:46:30.177Z,8.34
2024-02-19T04:47:30.149Z,8.37
2024-02-19T04:48:30.111Z,8.39
2024-02-19T04:49:30.212Z,8.39
2024-02-19T04:50:30.141Z,8.41
2024-02-19T04:51:30.096Z,8.42
2024-02-19T04:52:30.117Z,8.44
2024-02-19T04:53:30.074Z,8.46
2024-02-19T04:54:30.049Z,8.47
2024-02-19T04:55:30.114Z,8.47
2024-02-19T04:56:30.033Z,8.49
2024-02-19T04:57:30.023Z,8.50
2024-02-19T04:58:30.041Z,8.50
2024-02-19T04:59:30.027Z,8.52
2024-02-19T05:00:29.988Z,8.53
2024-02-19T05:01:30.057Z,8.55
2024-02-19T05:02:29.969Z,8.57
2024-02-19T05:03:29.982Z,8.56
2024-02-19T05:04:30.009Z,8.57
2024-02-19T05:05:30.018Z,8.59
2024-02-19T05:06:29.941Z,8.60
2024-02-19T05:07:29.940Z,8.60
2024-02-19T05:08:29.970Z,8.60
2024-02-19T05:09:29.941Z,8.59
2024-02-19T05:10:29.899Z,8.60
2024-02-19T05:11:29.900Z,8.62
2024-02-19T05:12:29.888Z,8.62
2024-02-19T05:13:29.869Z,8.62
2024-02-19T05:14:29.873Z,8.63
2024-02-19T05:15:29.855Z,8.65
2024-02-19T05:16:29.884Z,8.65
2024-02-19T05:17:29.874Z,8.65
2024-02-19T05:18:29.855Z,8.65
2024-02-19T05:19:29.928Z,8.65
2024-02-19T05:20:29.854Z,8.67
2024-02-19T05:21:29.761Z,8.67
2024-02-19T05:22:29.797Z,8.68
2024-02-19T05:23:29.733Z,8.70
2024-02-19T05:24:29.741Z,8.70
2024-02-19T05:25:29.836Z,8.70
2024-02-19T05:26:29.710Z,8.70
2024-02-19T05:27:29.715Z,8.70
2024-02-19T05:28:29.724Z,8.70
2024-02-19T05:29:29.713Z,8.71
2024-02-19T05:30:29.670Z,8.71
2024-02-19T05:31:29.679Z,8.71
2024-02-19T05:32:29.716Z,8.71
2024-02-19T05:33:29.628Z,8.70
2024-02-19T05:34:29.659Z,8.71
2024-02-19T05:35:29.725Z,8.71
2024-02-19T05:36:29.735Z,8.71
2024-02-19T05:37:29.658Z,8.70
2024-02-19T05:38:29.652Z,8.70
2024-02-19T05:39:29.592Z,8.71
2024-02-19T05:40:29.667Z,8.71
2024-02-19T05:41:29.677Z,8.71
2024-02-19T05:42:29.560Z,8.71
2024-02-19T05:43:29.538Z,8.71
2024-02-19T05:44:29.516Z,8.71
2024-02-19T05:45:29.604Z,8.72
2024-02-19T05:46:29.538Z,8.74
2024-02-19T05:47:29.540Z,8.74
2024-02-19T05:48:29.676Z,8.74
2024-02-19T05:49:29.575Z,8.75
2024-02-19T05:50:29.450Z,8.75
2024-02-19T05:51:29.458Z,8.75
2024-02-19T05:52:29.464Z,8.77
2024-02-19T05:53:29.422Z,8.77
2024-02-19T05:54:29.443Z,8.77
2024-02-19T05:55:29.615Z,8.78
2024-02-19T05:56:29.389Z,8.78
2024-02-19T05:57:29.377Z,8.78
2024-02-19T05:58:29.399Z,8.78
2024-02-19T05:59:29.357Z,8.78
2024-02-19T06:00:29.360Z,8.77
2024-02-19T06:01:29.607Z,8.78
2024-02-19T06:02:29.412Z,8.78
2024-02-19T06:03:29.308Z,8.77
2024-02-19T06:04:29.418Z,8.75
2024-02-19T06:05:29.519Z,8.75
2024-02-19T06:06:29.450Z,8.74
2024-02-19T06:07:29.337Z,8.72
2024-02-19T06:08:29.263Z,8.72
2024-02-19T06:09:29.249Z,8.72
2024-02-19T06:10:29.349Z,8.70
2024-02-19T06:11:29.360Z,8.70
2024-02-19T06:12:29.224Z,8.70
2024-02-19T06:13:29.208Z,8.67
2024-02-19T06:14:29.221Z,8.68
2024-02-19T06:15:29.186Z,8.67
2024-02-19T06:16:29.209Z,8.67
2024-02-19T06:17:29.187Z,8.67
2024-02-19T06:18:29.212Z,8.65
2024-02-19T06:19:29.185Z,8.67
2024-02-19T06:20:29.136Z,8.67
2024-02-19T06:21:29.170Z,8.67
2024-02-19T06:22:29.225Z,8.65
2024-02-19T06:23:29.109Z,8.65
2024-02-19T06:24:29.086Z,8.65
2024-02-19T06:25:29.110Z,8.63
2024-02-19T06:26:29.152Z,8.65
2024-02-19T06:27:29.106Z,8.65
2024-02-19T06:28:29.054Z,8.65
2024-02-19T06:29:29.034Z,8.65
2024-02-19T06:30:29.039Z,8.65
2024-02-19T06:31:29.357Z,8.65
2024-02-19T06:32:29.036Z,8.65
2024-02-19T06:33:29.167Z,8.62
2024-02-19T06:34:29.203Z,8.63
2024-02-19T06:35:29.025Z,8.63
2024-02-19T06:36:29.055Z,8.65
2024-02-19T06:37:29.017Z,8.63
2024-02-19T06:38:28.942Z,8.65
2024-02-19T06:39:28.951Z,8.65
2024-02-19T06:40:29.077Z,8.65
2024-02-19T06:41:28.901Z,8.63
2024-02-19T06:42:28.927Z,8.65
2024-02-19T06:43:28.993Z,8.63
2024-02-19T06:44:28.880Z,8.63
2024-02-19T06:45:28.873Z,8.63
2024-02-19T06:46:28.895Z,8.65
2024-02-19T06:47:28.931Z,8.67
2024-02-19T06:48:28.922Z,8.63
2024-02-19T06:49:28.888Z,8.65
2024-02-19T06:50:28.900Z,8.65
2024-02-19T06:51:28.823Z,8.65
2024-02-19T06:52:28.862Z,8.65
2024-02-19T06:53:28.839Z,8.65
2024-02-19T06:54:31.360Z,8.65
2024-02-19T06:55:29.049Z,8.68
2024-02-19T06:56:28.754Z,8.65
2024-02-19T06:57:28.733Z,8.67
2024-02-19T06:58:28.863Z,8.67
2024-02-19T06:59:28.733Z,8.68
2024-02-19T07:00:28.758Z,8.68
2024-02-19T07:01:28.742Z,8.70
2024-02-19T07:02:28.700Z,8.70
2024-02-19T07:03:28.728Z,8.70
2024-02-19T07:04:28.730Z,8.70
2024-02-19T07:05:28.789Z,8.70
2024-02-19T07:06:28.706Z,8.71
2024-02-19T07:07:28.744Z,8.70
2024-02-19T07:08:28.655Z,8.70
2024-02-19T07:09:28.603Z,8.70
2024-02-19T07:10:28.796Z,8.71
2024-02-19T07:11:28.645Z,8.68
2024-02-19T07:12:28.577Z,8.67
2024-02-19T07:13:28.626Z,8.68
2024-02-19T07:14:28.563Z,8.68
2024-02-19T07:15:28.661Z,8.68
2024-02-19T07:16:28.636Z,8.68
2024-02-19T07:17:28.551Z,8.67
2024-02-19T07:18:28.589Z,8.67
2024-02-19T07:19:28.605Z,8.67
2024-02-19T07:20:28.587Z,8.67
2024-02-19T07:21:28.522Z,8.67
2024-02-19T07:22:28.618Z,8.67
2024-02-19T07:23:28.484Z,8.68
2024-02-19T07:24:28.458Z,8.68
2024-02-19T07:25:28.535Z,8.68
2024-02-19T07:26:28.444Z,8.70
2024-02-19T07:27:28.466Z,8.68
2024-02-19T07:28:28.581Z,8.68
2024-02-19T07:29:28.398Z,8.67
2024-02-19T07:30:28.498Z,8.67
2024-02-19T07:31:28.546Z,8.68
2024-02-19T07:32:28.536Z,8.67
2024-02-19T07:33:28.442Z,8.71
2024-02-19T07:34:28.441Z,8.70
2024-02-19T07:35:28.413Z,8.70
2024-02-19T07:36:28.483Z,8.71
2024-02-19T07:37:28.399Z,8.70
2024-02-19T07:38:28.325Z,8.71
2024-02-19T07:39:28.319Z,8.71
2024-02-19T07:40:29.400Z,8.71
2024-02-19T07:41:28.267Z,8.70
2024-02-19T07:42:28.295Z,8.70
2024-02-19T07:43:28.340Z,8.70
2024-02-19T07:44:28.248Z,8.68
2024-02-19T07:45:28.246Z,8.68
2024-02-19T07:46:28.346Z,8.68
2024-02-19T07:47:28.249Z,8.68
2024-02-19T07:48:28.398Z,8.70
2024-02-19T07:49:28.365Z,8.71
2024-02-19T07:50:28.260Z,8.70
2024-02-19T07:51:28.194Z,8.70
2024-02-19T07:52:28.289Z,8.68
2024-02-19T07:53:28.174Z,8.71
2024-02-19T07:54:28.161Z,8.70
2024-02-19T07:55:28.172Z,8.68
2024-02-19T07:56:28.111Z,8.70
2024-02-19T07:57:28.093Z,8.70
2024-02-19T07:58:28.140Z,8.71
2024-02-19T07:59:28.063Z,8.72
2024-02-19T08:00:28.083Z,8.72
2024-02-19T08:01:28.109Z,8.72
2024-02-19T08:02:28.172Z,8.72
2024-02-19T08:03:28.032Z,8.74
2024-02-19T08:04:28.459Z,8.81
2024-02-19T08:05:28.132Z,8.86
2024-02-19T08:06:28.040Z,8.85
2024-02-19T08:07:28.058Z,8.85
2024-02-19T08:08:27.993Z,8.86
2024-02-19T08:09:28.063Z,8.83
2024-02-19T08:10:28.063Z,8.80
2024-02-19T08:11:27.956Z,8.80
2024-02-19T08:12:27.998Z,8.80
2024-02-19T08:13:28.138Z,8.81
2024-02-19T08:14:28.059Z,8.80
2024-02-19T08:15:28.045Z,8.78
2024-02-19T08:16:28.678Z,8.83
2024-02-19T08:17:27.970Z,8.83
2024-02-19T08:18:27.929Z,8.85
2024-02-19T08:19:27.935Z,8.86
2024-02-19T08:20:27.972Z,8.86
2024-02-19T08:21:27.876Z,8.88
2024-02-19T08:22:27.890Z,8.89
2024-02-19T08:23:27.828Z,8.93
2024-02-19T08:24:27.841Z,8.93
2024-02-19T08:25:27.851Z,8.93
2024-02-19T08:26:27.784Z,8.95
2024-02-19T08:27:27.850Z,8.96
2024-02-19T08:28:27.862Z,9.01
2024-02-19T08:29:27.814Z,9.01
2024-02-19T08:30:27.790Z,9.01
2024-02-19T08:31:27.771Z,9.03
2024-02-19T08:32:27.836Z,9.03
2024-02-19T08:33:27.727Z,9.06
2024-02-19T08:34:27.821Z,9.06
2024-02-19T08:35:27.881Z,9.04
2024-02-19T08:36:27.680Z,9.06
2024-02-19T08:37:27.802Z,9.06
2024-02-19T08:38:27.656Z,9.06
2024-02-19T08:39:27.706Z,9.08
2024-02-19T08:40:27.736Z,9.08
2024-02-19T08:41:27.690Z,9.08
2024-02-19T08:42:27.686Z,9.09
2024-02-19T08:43:27.704Z,9.08
2024-02-19T08:44:27.595Z,9.12
2024-02-19T08:45:31.568Z,9.12
2024-02-19T08:46:28.688Z,9.12
2024-02-19T08:47:27.662Z,9.11
2024-02-19T08:48:27.591Z,9.12
2024-02-19T08:49:27.668Z,9.09
2024-02-19T08:50:27.537Z,9.11
2024-02-19T08:51:27.523Z,9.09
2024-02-19T08:52:27.687Z,9.14
2024-02-19T08:53:27.534Z,9.14
2024-02-19T08:54:27.533Z,9.16
2024-02-19T08:55:27.575Z,9.16
2024-02-19T08:56:27.579Z,9.15
2024-02-19T08:57:27.492Z,9.15
2024-02-19T08:58:27.627Z,9.16
2024-02-19T08:59:27.474Z,9.18
2024-02-19T09:00:29.019Z,9.22
2024-02-19T09:01:27.491Z,9.23
2024-02-19T09:02:27.439Z,9.26
2024-02-19T09:03:27.434Z,9.24
2024-02-19T09:04:27.461Z,9.24
2024-02-19T09:05:27.430Z,9.23
2024-02-19T09:06:27.393Z,9.27
2024-02-19T09:07:27.404Z,9.30
2024-02-19T09:08:27.354Z,9.32
2024-02-19T09:09:27.351Z,9.33
2024-02-19T09:10:27.451Z,9.33
2024-02-19T09:11:27.359Z,9.37
2024-02-19T09:12:27.309Z,9.37
2024-02-19T09:13:27.408Z,9.40
2024-02-19T09:14:27.292Z,9.42
2024-02-19T09:15:27.263Z,9.44
2024-02-19T09:16:27.381Z,9.44
2024-02-19T09:17:27.305Z,9.47
2024-02-19T09:18:27.267Z,9.48
2024-02-19T09:19:27.292Z,9.48
2024-02-19T09:20:27.254Z,9.51
2024-02-19T09:21:27.280Z,9.51
2024-02-19T09:22:27.247Z,9.51
2024-02-19T09:23:29.310Z,9.52
2024-02-19T09:24:27.178Z,9.54
2024-02-19T09:25:27.384Z,9.57
2024-02-19T09:26:27.143Z,9.59
2024-02-19T09:27:27.194Z,9.57
2024-02-19T09:28:27.245Z,9.59
2024-02-19T09:29:27.116Z,9.59
2024-02-19T09:30:27.102Z,9.62
2024-02-19T09:31:27.182Z,9.63
2024-02-19T09:32:27.256Z,9.65
2024-02-19T09:33:27.095Z,9.66
2024-02-19T09:34:27.136Z,9.67
2024-02-19T09:35:27.125Z,9.67
2024-02-19T09:36:27.038Z,9.72
2024-02-19T09:37:27.132Z,9.73
2024-02-19T09:38:27.034Z,9.75
2024-02-19T09:39:27.007Z,9.73
2024-02-19T09:40:27.049Z,9.77
2024-02-19T09:41:27.051Z,9.75
2024-02-19T09:42:26.970Z,9.75
2024-02-19T09:43:27.060Z,9.78
2024-02-19T09:44:26.960Z,9.80
2024-02-19T09:45:27.042Z,9.81
2024-02-19T09:46:27.095Z,9.83
2024-02-19T09:47:26.970Z,9.83
2024-02-19T09:48:27.011Z,9.85
2024-02-19T09:49:26.942Z,9.85
2024-02-19T09:50:26.895Z,9.85
2024-02-19T09:51:33.138Z,9.88
2024-02-19T09:52:30.001Z,9.93
2024-02-19T09:53:26.861Z,9.93
2024-02-19T09:54:26.845Z,9.93
2024-02-19T09:55:26.921Z,9.94
2024-02-19T09:56:26.825Z,9.93
2024-02-19T09:57:27.029Z,9.93
2024-02-19T09:58:26.870Z,9.94
2024-02-19T09:59:26.802Z,9.94
2024-02-19T10:00:26.793Z,10.01
2024-02-19T10:01:26.940Z,10.03
2024-02-19T10:02:26.762Z,10.06
2024-02-19T10:03:26.762Z,10.08
2024-02-19T10:04:26.873Z,10.05
2024-02-19T10:05:27.017Z,10.05
2024-02-19T10:06:26.797Z,10.06
2024-02-19T10:07:26.854Z,10.08
2024-02-19T10:08:26.720Z,10.09
2024-02-19T10:09:26.694Z,10.09
2024-02-19T10:10:26.754Z,10.10
2024-02-19T10:11:26.758Z,10.10
2024-02-19T10:12:26.649Z,10.10
2024-02-19T10:13:26.692Z,10.14
2024-02-19T10:14:26.628Z,10.16
2024-02-19T10:15:26.633Z,10.17
2024-02-19T10:16:26.614Z,10.20
2024-02-19T10:17:26.685Z,10.24
2024-02-19T10:18:26.704Z,10.26
2024-02-19T10:19:26.709Z,10.24
2024-02-19T10:20:26.570Z,10.28
2024-02-19T10:21:26.615Z,10.30
2024-02-19T10:22:26.593Z,10.31
2024-02-19T10:23:26.613Z,10.35
2024-02-19T10:24:26.526Z,10.35
2024-02-19T10:25:26.670Z,10.35
2024-02-19T10:26:26.502Z,10.39
2024-02-19T10:27:26.491Z,10.42
2024-02-19T10:28:26.519Z,10.42
2024-02-19T10:29:26.504Z,10.46
2024-02-19T10:30:26.469Z,10.48
2024-02-19T10:31:26.502Z,10.48
2024-02-19T10:32:26.535Z,10.52
2024-02-19T10:33:26.512Z,10.54
2024-02-19T10:34:26.506Z,10.55
2024-02-19T10:35:26.507Z,10.55
2024-02-19T10:36:26.405Z,10.58
2024-02-19T10:37:26.439Z,10.57
2024-02-19T10:38:26.385Z,10.61
2024-02-19T10:39:26.442Z,10.61
2024-02-19T10:40:26.391Z,10.61
2024-02-19T10:41:26.363Z,10.61
2024-02-19T10:42:26.333Z,10.61
2024-02-19T10:43:26.365Z,10.62
2024-02-19T10:44:26.336Z,10.64
2024-02-19T10:45:26.494Z,10.68
2024-02-19T10:46:26.359Z,10.68
2024-02-19T10:47:26.308Z,10.68
2024-02-19T10:48:26.509Z,10.72
2024-02-19T10:49:26.363Z,10.70
2024-02-19T10:50:26.276Z,10.70
2024-02-19T10:51:26.303Z,10.72
2024-02-19T10:52:26.259Z,10.72
2024-02-19T10:53:26.218Z,10.72
2024-02-19T10:54:26.227Z,10.72
2024-02-19T10:55:35.937Z,10.72
2024-02-19T10:56:27.211Z,10.72
2024-02-19T10:57:26.178Z,10.72
2024-02-19T10:58:26.571Z,10.73
2024-02-19T10:59:26.198Z,10.73
2024-02-19T11:00:26.189Z,10.73
2024-02-19T11:01:26.329Z,10.76
2024-02-19T11:02:26.356Z,10.79
2024-02-19T11:03:26.190Z,10.80
2024-02-19T11:04:26.188Z,10.80
2024-02-19T11:05:26.139Z,10.83
2024-02-19T11:06:26.108Z,10.82
2024-02-19T11:07:26.113Z,10.82
2024-02-19T11:08:26.058Z,10.83
2024-02-19T11:09:29.292Z,10.83
2024-02-19T11:10:26.177Z,10.86
2024-02-19T11:11:26.272Z,10.85
2024-02-19T11:12:26.017Z,10.85
2024-02-19T11:13:26.076Z,10.86
2024-02-19T11:14:26.111Z,10.85
2024-02-19T11:15:26.001Z,10.86
2024-02-19T11:16:26.042Z,10.87
2024-02-19T11:17:26.017Z,10.86
2024-02-19T11:18:26.029Z,10.91
2024-02-19T11:19:26.102Z,10.91
2024-02-19T11:20:26.118Z,10.91
2024-02-19T11:21:26.041Z,10.91
2024-02-19T11:22:26.120Z,10.91
2024-02-19T11:23:25.939Z,10.90
2024-02-19T11:24:25.913Z,10.91
2024-02-19T11:25:26.164Z,10.87
2024-02-19T11:26:25.850Z,10.90
2024-02-19T11:27:25.971Z,10.90
2024-02-19T11:28:25.948Z,10.93
2024-02-19T11:29:33.439Z,10.95
2024-02-19T11:30:26.828Z,11.00
2024-02-19T11:31:26.302Z,11.01
2024-02-19T11:32:25.938Z,11.04
2024-02-19T11:33:25.786Z,11.01
2024-02-19T11:34:25.919Z,11.03
2024-02-19T11:35:25.872Z,11.01
2024-02-19T11:36:25.796Z,11.03
2024-02-19T11:37:25.967Z,11.04
2024-02-19T11:38:25.765Z,11.04
2024-02-19T11:39:25.791Z,11.08
2024-02-19T11:40:25.935Z,11.08
2024-02-19T11:41:25.772Z,11.09
2024-02-19T11:42:25.793Z,11.08
2024-02-19T11:43:25.934Z,11.09
2024-02-19T11:44:25.661Z,11.12
2024-02-19T11:45:25.710Z,11.13
2024-02-19T11:46:25.856Z,11.15
2024-02-19T11:47:25.784Z,11.15
2024-02-19T11:48:25.818Z,11.16
2024-02-19T11:49:25.786Z,11.16
2024-02-19T11:50:25.696Z,11.19
2024-02-19T11:51:25.687Z,11.20
2024-02-19T11:52:25.807Z,11.23
2024-02-19T11:53:25.576Z,11.23
2024-02-19T11:54:25.551Z,11.28
2024-02-19T11:55:25.603Z,11.30
2024-02-19T11:56:25.551Z,11.33
2024-02-19T11:57:27.972Z,11.36
2024-02-19T11:58:25.590Z,11.37
2024-02-19T11:59:25.521Z,11.36
2024-02-19T12:00:25.516Z,11.38
2024-02-19T12:01:25.558Z,11.38
2024-02-19T12:02:25.605Z,11.40
2024-02-19T12:03:25.545Z,11.38
2024-02-19T12:04:25.529Z,11.38
2024-02-19T12:05:25.472Z,11.40
2024-02-19T12:06:25.429Z,11.40
2024-02-19T12:07:25.509Z,11.41
2024-02-19T12:08:25.416Z,11.41
2024-02-19T12:09:25.489Z,11.41
2024-02-19T12:10:25.567Z,11.40
2024-02-19T12:11:25.426Z,11.41
2024-02-19T12:12:25.370Z,11.43
2024-02-19T12:13:25.521Z,11.45
2024-02-19T12:14:25.363Z,11.48
2024-02-19T12:15:25.356Z,11.51
2024-02-19T12:16:25.396Z,11.51
2024-02-19T12:17:25.432Z,11.49
2024-02-19T12:18:25.383Z,11.51
2024-02-19T12:19:25.491Z,11.52
2024-02-19T12:20:25.365Z,11.54
2024-02-19T12:21:25.287Z,11.55
2024-02-19T12:22:25.421Z,11.56
2024-02-19T12:23:25.273Z,11.55
2024-02-19T12:24:25.266Z,11.54
2024-02-19T12:25:25.411Z,11.51
2024-02-19T12:26:25.218Z,11.51
2024-02-19T12:27:25.247Z,11.51
2024-02-19T12:28:25.432Z,11.54
2024-02-19T12:29:25.191Z,11.54
2024-02-19T12:30:25.196Z,11.54
2024-02-19T12:31:25.203Z,11.52
2024-02-19T12:32:25.189Z,11.52
2024-02-19T12:33:25.319Z,11.52
2024-02-19T12:34:25.277Z,11.51
2024-02-19T12:35:25.305Z,11.49
2024-02-19T12:36:25.188Z,11.45
2024-02-19T12:37:25.195Z,11.45
2024-02-19T12:38:25.149Z,11.40
2024-02-19T12:39:25.153Z,11.40
2024-02-19T12:40:25.177Z,11.40
2024-02-19T12:41:25.116Z,11.37
2024-02-19T12:42:25.456Z,11.33
2024-02-19T12:43:25.104Z,11.33
2024-02-19T12:44:25.051Z,11.31
2024-02-19T12:45:25.052Z,11.30
2024-02-19T12:46:25.083Z,11.31
2024-02-19T12:47:25.304Z,11.31
2024-02-19T12:48:25.199Z,11.28
2024-02-19T12:49:25.131Z,11.28
2024-02-19T12:50:25.093Z,11.30
2024-02-19T12:51:24.969Z,11.28
2024-02-19T12:52:25.006Z,11.28
2024-02-19T12:53:25.075Z,11.28
2024-02-19T12:54:24.917Z,11.31
2024-02-19T12:55:25.022Z,11.31
2024-02-19T12:56:24.899Z,11.31
2024-02-19T12:57:24.885Z,11.33
2024-02-19T12:58:24.968Z,11.33
2024-02-19T12:59:24.868Z,11.36
2024-02-19T13:00:24.885Z,11.37
2024-02-19T13:01:31.793Z,11.37
2024-02-19T13:02:26.015Z,11.37
2024-02-19T13:03:24.835Z,11.37
2024-02-19T13:04:27.586Z,11.38
2024-02-19T13:05:24.870Z,11.38
2024-02-19T13:06:24.831Z,11.40
2024-02-19T13:07:24.898Z,11.40
2024-02-19T13:08:24.776Z,11.40
2024-02-19T13:09:24.766Z,11.40
2024-02-19T13:10:24.909Z,11.43
2024-02-19T13:11:24.807Z,11.41
2024-02-19T13:12:24.739Z,11.41